createdAt,value
2022-11-15T00:02:40.250Z,32.22
2022-11-15T00:05:27.400Z,28.10
2022-11-15T00:08:14.648Z,25.48
2022-11-15T00:11:03.579Z,29.27
2022-11-15T00:13:50.718Z,30.42
2022-11-15T00:16:37.701Z,24.30
2022-11-15T00:19:24.819Z,24.95
2022-11-15T00:22:12.044Z,24.67
2022-11-15T00:24:59.162Z,27.13
2022-11-15T00:27:46.394Z,26.90
2022-11-15T00:30:33.540Z,24.40
2022-11-15T00:33:20.563Z,25.60
2022-11-15T00:36:12.732Z,23.67
2022-11-15T00:38:59.722Z,26.23
2022-11-15T00:41:46.862Z,21.70
2022-11-15T00:44:33.796Z,25.00
2022-11-15T00:47:20.909Z,28.33
2022-11-15T00:50:10.704Z,27.75
2022-11-15T00:53:01.310Z,21.40
2022-11-15T00:55:48.241Z,19.83
2022-11-15T00:58:35.337Z,19.35
2022-11-15T01:01:22.419Z,24.88
2022-11-15T01:04:09.613Z,23.17
2022-11-15T01:06:56.645Z,24.85
2022-11-15T01:09:43.556Z,18.80
2022-11-15T01:12:30.556Z,22.58
2022-11-15T01:15:17.984Z,19.13
2022-11-15T01:18:05.134Z,24.60
2022-11-15T01:20:52.054Z,22.58
2022-11-15T01:23:39.224Z,22.90
2022-11-15T01:26:26.865Z,17.60
2022-11-15T01:29:13.902Z,20.83
2022-11-15T01:32:01.047Z,16.50
2022-11-15T01:34:47.974Z,18.10
2022-11-15T01:37:34.961Z,16.45
2022-11-15T01:40:21.994Z,22.30
2022-11-15T01:43:27.558Z,20.40
2022-11-15T01:46:31.992Z,22.50
2022-11-15T01:49:22.142Z,21.90
2022-11-15T01:52:15.082Z,22.75
2022-11-15T01:58:09.292Z,25.70
2022-11-15T02:00:56.527Z,24.02
2022-11-15T02:03:56.310Z,24.10
2022-11-15T02:06:45.038Z,20.38
2022-11-15T02:09:32.025Z,24.52
2022-11-15T02:12:22.857Z,19.15
2022-11-15T02:15:11.590Z,20.75
2022-11-15T02:18:24.576Z,21.73
2022-11-15T02:21:48.214Z,25.05
2022-11-15T02:25:14.033Z,24.02
2022-11-15T02:28:38.875Z,20.38
2022-11-15T02:31:40.778Z,21.58
2022-11-15T02:34:39.463Z,15.23
2022-11-15T02:38:03.293Z,21.42
2022-11-15T02:41:04.884Z,26.05
2022-11-15T02:44:50.081Z,21.23
2022-11-15T02:47:44.580Z,21.45
2022-11-15T02:50:34.025Z,22.42
2022-11-15T02:53:26.370Z,17.98
2022-11-15T02:56:13.680Z,18.13
2022-11-15T02:59:16.187Z,18.13
2022-11-15T03:02:56.497Z,18.70
2022-11-15T03:06:24.836Z,17.83
2022-11-15T03:09:29.232Z,19.77
2022-11-15T03:12:47.261Z,18.17
2022-11-15T03:15:43.114Z,22.20
2022-11-15T03:18:34.740Z,15.85
2022-11-15T03:21:23.481Z,30.88
2022-11-15T03:24:12.165Z,21.60
2022-11-15T03:27:01.738Z,20.80
2022-11-15T03:29:54.653Z,17.27
2022-11-15T03:35:40.277Z,19.85
2022-11-15T03:38:31.161Z,17.45
2022-11-15T03:41:46.402Z,16.77
2022-11-15T03:44:42.435Z,17.73
2022-11-15T03:48:34.249Z,18.63
2022-11-15T03:51:21.806Z,13.57
2022-11-15T03:54:08.778Z,22.48
2022-11-15T03:56:55.825Z,17.27
2022-11-15T03:59:42.977Z,18.05
2022-11-15T04:02:30.217Z,16.13
2022-11-15T04:05:17.211Z,17.20
2022-11-15T04:08:04.501Z,16.55
2022-11-15T04:10:51.453Z,18.17
2022-11-15T04:13:38.573Z,20.63
2022-11-15T04:16:25.536Z,18.13
2022-11-15T04:19:31.118Z,18.15
2022-11-15T04:22:41.203Z,16.20
2022-11-15T04:25:32.126Z,21.77
2022-11-15T04:28:19.793Z,17.70
2022-11-15T04:31:06.696Z,13.88
2022-11-15T04:33:54.253Z,21.00
2022-11-15T04:36:59.900Z,24.02
2022-11-15T04:39:46.872Z,49.88
2022-11-15T04:42:33.823Z,35.65
2022-11-15T04:45:21.245Z,44.25
2022-11-15T04:48:08.340Z,37.35
2022-11-15T04:50:55.257Z,60.67
2022-11-15T04:53:42.232Z,57.50
2022-11-15T04:56:29.410Z,177.80
2022-11-15T04:59:16.555Z,76.57
2022-11-15T05:02:03.436Z,59.08
2022-11-15T05:04:50.358Z,51.95
2022-11-15T05:07:37.511Z,58.95
2022-11-15T05:10:24.521Z,64.07
2022-11-15T05:13:11.584Z,60.47
2022-11-15T05:15:58.508Z,123.10
2022-11-15T05:18:45.530Z,153.20
2022-11-15T05:21:33.449Z,66.60
2022-11-15T05:24:20.420Z,69.43
2022-11-15T05:27:07.313Z,73.97
2022-11-15T05:29:54.464Z,65.90
2022-11-15T05:32:41.725Z,58.95
2022-11-15T05:35:35.469Z,89.60
2022-11-15T05:38:22.918Z,77.57
2022-11-15T05:41:10.184Z,54.88
2022-11-15T05:43:58.484Z,54.90
2022-11-15T05:46:46.415Z,57.80
2022-11-15T05:49:36.841Z,71.05
2022-11-15T05:52:29.811Z,64.35
2022-11-15T05:58:03.879Z,287.42
2022-11-15T06:00:50.810Z,280.98
2022-11-15T06:03:39.236Z,87.00
2022-11-15T06:06:28.799Z,46.45
2022-11-15T06:09:15.734Z,125.68
2022-11-15T06:12:02.671Z,324.05
2022-11-15T06:14:49.815Z,82.38
2022-11-15T06:17:36.807Z,68.80
2022-11-15T06:20:24.621Z,83.55
2022-11-15T06:23:11.533Z,204.63
2022-11-15T06:26:03.097Z,383.17
2022-11-15T06:28:50.017Z,87.43
2022-11-15T06:31:37.036Z,60.40
2022-11-15T06:34:23.946Z,53.83
2022-11-15T06:37:11.048Z,60.25
2022-11-15T06:39:58.172Z,45.38
2022-11-15T06:42:45.178Z,79.88
2022-11-15T06:45:32.652Z,44.95
2022-11-15T06:48:19.793Z,48.70
2022-11-15T06:51:06.971Z,71.20
2022-11-15T06:53:53.935Z,41.47
2022-11-15T06:56:40.859Z,39.10
2022-11-15T06:59:28.103Z,42.90
2022-11-15T07:02:15.010Z,34.38
2022-11-15T07:05:01.914Z,39.67
2022-11-15T07:07:55.835Z,43.92
2022-11-15T07:10:42.999Z,42.53
2022-11-15T07:13:34.688Z,33.78
2022-11-15T07:16:22.155Z,43.17
2022-11-15T07:19:10.027Z,36.90
2022-11-15T07:21:57.167Z,36.38
2022-11-15T07:24:44.281Z,38.40
2022-11-15T07:27:31.293Z,37.92
2022-11-15T07:30:18.638Z,34.47
2022-11-15T07:33:05.848Z,41.15
2022-11-15T07:35:52.996Z,33.00
2022-11-15T07:38:43.026Z,35.33
2022-11-15T07:41:30.626Z,34.85
2022-11-15T07:44:17.736Z,42.15
2022-11-15T07:47:04.773Z,48.95
2022-11-15T07:49:51.675Z,38.92
2022-11-15T07:52:38.601Z,43.67
2022-11-15T07:55:27.270Z,39.95
2022-11-15T07:58:14.459Z,48.03
2022-11-15T08:01:09.807Z,46.47
2022-11-15T08:03:56.866Z,41.58
2022-11-15T08:06:43.837Z,38.85
2022-11-15T08:09:30.846Z,47.67
2022-11-15T08:12:18.125Z,41.35
2022-11-15T08:15:05.837Z,44.65
2022-11-15T08:18:01.529Z,37.38
2022-11-15T08:20:48.637Z,46.17
2022-11-15T08:23:35.813Z,50.40
2022-11-15T08:26:22.836Z,45.05
2022-11-15T08:29:10.014Z,40.65
2022-11-15T08:31:57.201Z,39.03
2022-11-15T08:34:44.386Z,50.58
2022-11-15T08:37:31.307Z,41.78
2022-11-15T08:40:19.700Z,42.58
2022-11-15T08:43:06.992Z,57.50
2022-11-15T08:45:57.149Z,44.95
2022-11-15T08:48:44.080Z,43.35
2022-11-15T08:51:31.232Z,44.53
2022-11-15T08:54:18.390Z,45.45
2022-11-15T08:57:05.350Z,37.53
2022-11-15T08:59:52.264Z,37.10
2022-11-15T09:02:42.451Z,41.67
2022-11-15T09:05:29.565Z,36.42
2022-11-15T09:08:40.703Z,37.40
2022-11-15T09:11:24.263Z,38.13
2022-11-15T09:14:15.145Z,47.08
2022-11-15T09:17:02.437Z,35.60
2022-11-15T09:19:49.391Z,42.80
2022-11-15T09:22:37.484Z,37.67
2022-11-15T09:25:24.609Z,43.17
2022-11-15T09:28:11.749Z,34.47
2022-11-15T09:31:00.365Z,35.80
2022-11-15T09:33:47.355Z,39.78
2022-11-15T09:36:34.506Z,45.30
2022-11-15T09:39:21.684Z,43.53
2022-11-15T09:42:47.296Z,41.35
2022-11-15T09:46:17.424Z,40.10
2022-11-15T09:49:05.653Z,39.58
2022-11-15T09:51:55.166Z,37.88
2022-11-15T09:54:56.010Z,38.92
2022-11-15T09:58:17.823Z,35.53
2022-11-15T10:01:12.889Z,37.53
2022-11-15T10:04:00.421Z,34.88
2022-11-15T10:07:21.662Z,35.42
2022-11-15T10:10:37.040Z,38.70
2022-11-15T10:13:27.664Z,39.78
2022-11-15T10:17:06.764Z,32.13
2022-11-15T10:20:33.984Z,34.83
2022-11-15T10:23:23.260Z,38.63
2022-11-15T10:26:17.163Z,35.03
2022-11-15T10:29:04.462Z,34.35
2022-11-15T10:31:52.040Z,34.97
2022-11-15T10:34:39.009Z,35.63
2022-11-15T10:37:31.009Z,39.47
2022-11-15T10:40:23.658Z,33.13
2022-11-15T10:43:20.281Z,35.67
2022-11-15T10:46:45.711Z,30.05
2022-11-15T10:49:32.481Z,32.20
2022-11-15T10:52:21.318Z,29.13
2022-11-15T10:55:35.047Z,29.63
2022-11-15T10:58:59.995Z,31.48
2022-11-15T11:01:48.831Z,38.30
2022-11-15T11:04:52.094Z,31.40
2022-11-15T11:13:38.673Z,30.25
2022-11-15T11:16:56.189Z,40.60
2022-11-15T11:20:04.648Z,31.48
2022-11-15T11:23:29.070Z,37.47
2022-11-15T11:26:55.787Z,31.52
2022-11-15T11:30:19.597Z,32.63
2022-11-15T11:33:30.683Z,30.90
2022-11-15T11:36:38.059Z,35.28
2022-11-15T11:40:09.092Z,31.42
2022-11-15T11:50:16.733Z,30.98
2022-11-15T11:53:19.704Z,35.88
2022-11-15T12:03:24.656Z,30.90
2022-11-15T12:06:36.769Z,35.78
2022-11-15T12:09:36.372Z,33.67
2022-11-15T12:13:11.892Z,34.38
2022-11-15T12:16:23.049Z,35.03
2022-11-15T12:19:09.962Z,34.63
2022-11-15T12:22:15.097Z,34.75
2022-11-15T12:25:21.935Z,35.35
2022-11-15T12:28:33.785Z,39.03
2022-11-15T12:31:42.980Z,33.03
2022-11-15T12:34:39.053Z,30.88
2022-11-15T12:37:48.903Z,35.72
2022-11-15T12:40:39.112Z,33.35
2022-11-15T12:43:45.895Z,33.40
2022-11-15T12:47:23.104Z,37.25
2022-11-15T12:50:14.688Z,40.05
2022-11-15T12:53:31.157Z,36.53
2022-11-15T12:56:21.938Z,36.38
2022-11-15T12:59:08.919Z,36.08
2022-11-15T13:02:00.876Z,30.83
2022-11-15T13:04:48.685Z,30.70
2022-11-15T13:08:01.836Z,30.90
2022-11-15T13:10:48.822Z,33.83
2022-11-15T13:13:46.391Z,39.78
2022-11-15T13:16:33.611Z,39.88
2022-11-15T13:19:24.121Z,38.67
2022-11-15T13:22:30.253Z,33.92
2022-11-15T13:25:58.985Z,38.17
2022-11-15T13:28:50.414Z,30.58
2022-11-15T13:31:44.004Z,32.53
2022-11-15T13:37:42.096Z,27.08
2022-11-15T13:40:35.421Z,29.02
2022-11-15T13:43:43.223Z,28.50
2022-11-15T13:46:34.676Z,26.77
2022-11-15T13:49:30.949Z,32.03
2022-11-15T13:52:18.318Z,31.40
2022-11-15T13:55:20.493Z,31.10
2022-11-15T13:58:10.254Z,34.55
2022-11-15T14:01:05.647Z,31.58
2022-11-15T14:04:01.625Z,32.47
2022-11-15T14:06:51.869Z,33.97
2022-11-15T14:09:41.967Z,33.45
2022-11-15T14:12:34.825Z,33.72
2022-11-15T14:15:32.936Z,30.38
2022-11-15T14:18:56.620Z,31.17
2022-11-15T14:22:32.002Z,39.05
2022-11-15T14:25:22.414Z,41.00
2022-11-15T14:28:35.818Z,33.80
2022-11-15T14:31:23.155Z,36.95
2022-11-15T14:34:10.061Z,35.67
2022-11-15T14:36:56.985Z,29.02
2022-11-15T14:39:44.150Z,30.55
2022-11-15T14:42:31.103Z,34.65
2022-11-15T14:45:21.833Z,35.20
2022-11-15T14:48:08.753Z,33.75
2022-11-15T14:50:55.900Z,30.63
2022-11-15T14:53:43.301Z,33.28
2022-11-15T14:56:30.223Z,34.15
2022-11-15T14:59:17.213Z,30.08
2022-11-15T15:02:16.526Z,33.00
2022-11-15T15:05:18.945Z,31.42
2022-11-15T15:08:06.946Z,34.28
2022-11-15T15:10:53.973Z,35.92
2022-11-15T15:13:41.138Z,35.40
2022-11-15T15:16:28.299Z,30.98
2022-11-15T15:19:15.229Z,34.80
2022-11-15T15:22:02.156Z,34.85
2022-11-15T15:24:49.422Z,32.15
2022-11-15T15:27:36.348Z,36.28
2022-11-15T15:30:24.484Z,33.15
2022-11-15T15:33:11.470Z,30.77
2022-11-15T15:35:58.689Z,36.28
2022-11-15T15:38:47.614Z,35.78
2022-11-15T15:41:34.588Z,34.58
2022-11-15T15:44:21.489Z,32.42
2022-11-15T15:47:14.709Z,35.83
2022-11-15T15:50:01.896Z,33.25
2022-11-15T15:52:50.564Z,35.60
2022-11-15T15:55:38.053Z,35.10
2022-11-15T15:58:25.235Z,32.67
2022-11-15T16:01:12.203Z,39.08
2022-11-15T16:03:59.166Z,33.15
2022-11-15T16:06:46.913Z,31.90
2022-11-15T16:09:52.895Z,36.90
2022-11-15T16:12:40.003Z,33.05
2022-11-15T16:15:29.256Z,31.70
2022-11-15T16:18:17.694Z,34.47
2022-11-15T16:21:04.877Z,29.60
2022-11-15T16:23:52.172Z,37.58
2022-11-15T16:26:39.399Z,33.60
2022-11-15T16:29:26.285Z,37.25
2022-11-15T16:32:14.249Z,37.38
2022-11-15T16:35:01.395Z,36.38
2022-11-15T16:37:48.345Z,42.58
2022-11-15T16:40:36.093Z,40.58
2022-11-15T16:43:23.358Z,41.33
2022-11-15T16:46:17.896Z,44.08
2022-11-15T16:49:04.816Z,37.67
2022-11-15T16:51:51.804Z,39.00
2022-11-15T16:54:38.804Z,39.88
2022-11-15T16:57:25.904Z,37.38
2022-11-15T17:00:16.645Z,41.67
2022-11-15T17:03:03.906Z,138.93
2022-11-15T17:05:51.219Z,57.60
2022-11-15T17:08:38.244Z,70.80
2022-11-15T17:11:25.170Z,57.97
2022-11-15T17:14:12.725Z,55.42
2022-11-15T17:16:59.876Z,39.15
2022-11-15T17:19:47.304Z,119.28
2022-11-15T17:22:34.490Z,191.52
2022-11-15T17:25:21.460Z,72.32
2022-11-15T17:28:08.734Z,270.20
2022-11-15T17:30:55.787Z,324.85
2022-11-15T17:33:42.834Z,115.40
2022-11-15T17:36:30.355Z,60.45
2022-11-15T17:39:19.614Z,49.85
2022-11-15T17:42:06.769Z,70.93
2022-11-15T17:44:53.906Z,64.13
2022-11-15T17:47:40.849Z,49.08
2022-11-15T17:50:27.976Z,34.42
2022-11-15T17:53:15.074Z,74.88
2022-11-15T17:56:03.857Z,47.47
2022-11-15T17:58:56.024Z,44.17
2022-11-15T18:01:43.199Z,52.08
2022-11-15T18:04:30.133Z,41.05
2022-11-15T18:07:17.111Z,46.53
2022-11-15T18:10:04.822Z,41.00
2022-11-15T18:12:51.753Z,37.85
2022-11-15T18:15:38.823Z,42.53
2022-11-15T18:18:26.082Z,34.17
2022-11-15T18:21:18.792Z,35.45
2022-11-15T18:24:06.168Z,36.72
2022-11-15T18:26:53.601Z,99.05
2022-11-15T18:29:40.622Z,37.75
2022-11-15T18:32:27.534Z,33.65
2022-11-15T18:35:14.765Z,35.22
2022-11-15T18:38:01.870Z,40.88
2022-11-15T18:40:48.852Z,91.10
2022-11-15T18:43:36.781Z,35.53
2022-11-15T18:46:25.826Z,29.40
2022-11-15T18:49:14.779Z,44.88
2022-11-15T18:52:01.938Z,34.42
2022-11-15T18:54:48.908Z,30.88
2022-11-15T18:57:36.029Z,30.23
2022-11-15T19:00:23.290Z,42.00
2022-11-15T19:03:10.274Z,30.50
2022-11-15T19:06:04.890Z,32.33
2022-11-15T19:08:54.644Z,24.00
2022-11-15T19:11:43.037Z,27.98
2022-11-15T19:14:30.075Z,26.85
2022-11-15T19:17:16.998Z,27.83
2022-11-15T19:20:04.552Z,30.75
2022-11-15T19:22:51.672Z,27.90
2022-11-15T19:25:38.618Z,25.95
2022-11-15T19:28:27.181Z,30.90
2022-11-15T19:31:16.052Z,26.55
2022-11-15T19:34:04.986Z,29.50
2022-11-15T19:36:51.985Z,75.00
2022-11-15T19:39:41.167Z,85.68
2022-11-15T19:42:28.601Z,128.85
2022-11-15T19:45:15.882Z,71.65
2022-11-15T19:48:02.877Z,71.15
2022-11-15T19:50:50.301Z,58.47
2022-11-15T19:53:38.183Z,66.85
2022-11-15T19:56:25.767Z,37.05
2022-11-15T19:59:13.591Z,37.17
2022-11-15T20:02:02.894Z,35.88
2022-11-15T20:04:49.820Z,41.75
2022-11-15T20:07:37.023Z,39.38
2022-11-15T20:10:24.018Z,48.95
2022-11-15T20:13:10.921Z,47.50
2022-11-15T20:15:58.072Z,49.28
2022-11-15T20:18:45.952Z,64.43
2022-11-15T20:21:32.982Z,69.45
2022-11-15T20:24:19.938Z,46.22
2022-11-15T20:27:07.253Z,42.75
2022-11-15T20:29:54.622Z,43.35
2022-11-15T20:32:41.586Z,41.63
2022-11-15T20:35:28.568Z,37.38
2022-11-15T20:38:16.034Z,39.55
2022-11-15T20:41:03.578Z,42.08
2022-11-15T20:43:50.565Z,40.38
2022-11-15T20:46:37.440Z,29.85
2022-11-15T20:49:24.608Z,30.63
2022-11-15T20:52:11.531Z,26.38
2022-11-15T20:54:58.495Z,30.95
2022-11-15T20:57:45.492Z,32.78
2022-11-15T21:00:33.132Z,29.27
2022-11-15T21:03:20.243Z,34.20
2022-11-15T21:06:08.166Z,28.08
2022-11-15T21:09:14.285Z,33.05
2022-11-15T21:12:13.478Z,29.52
2022-11-15T21:15:00.548Z,27.40
2022-11-15T21:17:47.537Z,30.63
2022-11-15T21:20:34.737Z,30.83
2022-11-15T21:23:21.939Z,26.70
2022-11-15T21:26:09.109Z,29.08
2022-11-15T21:28:56.057Z,26.45
2022-11-15T21:31:44.571Z,25.48
2022-11-15T21:34:31.696Z,28.63
2022-11-15T21:37:18.587Z,27.60
2022-11-15T21:40:06.370Z,31.48
2022-11-15T21:42:53.254Z,29.13
2022-11-15T21:45:40.434Z,33.67
2022-11-15T21:48:28.798Z,30.08
2022-11-15T21:51:15.717Z,32.38
2022-11-15T21:54:02.692Z,28.73
2022-11-15T21:56:49.674Z,28.38
2022-11-15T21:59:56.498Z,25.38
2022-11-15T22:02:43.506Z,26.63
2022-11-15T22:05:30.414Z,33.78
2022-11-15T22:08:17.525Z,28.48
2022-11-15T22:11:04.773Z,30.60
2022-11-15T22:13:51.746Z,33.30
2022-11-15T22:16:39.245Z,29.95
2022-11-15T22:19:26.252Z,28.17
2022-11-15T22:22:13.448Z,25.27
2022-11-15T22:25:00.444Z,27.80
2022-11-15T22:27:47.454Z,25.25
2022-11-15T22:30:34.662Z,25.30
2022-11-15T22:33:24.629Z,26.25
2022-11-15T22:36:12.652Z,29.17
2022-11-15T22:38:59.697Z,28.33
2022-11-15T22:41:46.960Z,28.08
2022-11-15T22:44:34.127Z,36.58
2022-11-15T22:47:21.402Z,35.45
2022-11-15T22:50:08.881Z,31.60
2022-11-15T22:52:56.120Z,27.98
2022-11-15T22:55:43.304Z,32.40
2022-11-15T22:58:32.157Z,30.45
2022-11-15T23:01:21.982Z,30.13
2022-11-15T23:04:09.214Z,28.85
2022-11-15T23:06:57.035Z,34.45
2022-11-15T23:09:47.699Z,29.38
2022-11-15T23:12:56.413Z,29.67
2022-11-15T23:16:07.664Z,26.50
2022-11-15T23:18:57.294Z,27.75
2022-11-15T23:22:05.250Z,27.73
2022-11-15T23:24:53.269Z,27.38
2022-11-15T23:27:40.864Z,21.65
2022-11-15T23:30:46.288Z,24.45
2022-11-15T23:33:52.112Z,29.77
2022-11-15T23:36:40.642Z,26.00
2022-11-15T23:39:28.075Z,29.52
2022-11-15T23:42:19.721Z,29.30
2022-11-15T23:45:07.860Z,31.57
2022-11-15T23:48:00.990Z,22.80
2022-11-15T23:50:48.868Z,25.80
2022-11-15T23:53:35.848Z,21.70
2022-11-15T23:56:23.294Z,25.52
2022-11-15T23:59:10.469Z,26.00
